| time (UTC) | temp F | wind direction | speed MPH | gust MPH | rain 1hr in | rain 24hr in | rain mn in | humidity % | barometer mb |
| 20260906194103 | 84 | 122 | 8.0 | 10.0 | 0.00 | 0.04 | 0.04 | 48 | 1014.5 |
| 20260906193603 | 84 | 111 | 9.0 | 12.0 | 0.00 | 0.04 | 0.04 | 47 | 1014.4 |
| 20260906192605 | 84 | 114 | 6.0 | 12.0 | 0.00 | 0.04 | 0.04 | 46 | 1014.5 |
| 20260906191603 | 84 | 68 | 7.0 | 10.0 | 0.00 | 0.04 | 0.04 | 48 | 1014.6 |
| 20260906191104 | 85 | 66 | 8.0 | 14.0 | 0.00 | 0.04 | 0.04 | 49 | 1014.6 |
| 20260906190103 | 84 | 106 | 6.0 | 12.0 | 0.00 | 0.04 | 0.04 | 47 | 1014.5 |
| 20260906185604 | 84 | 104 | 4.0 | 8.0 | 0.00 | 0.04 | 0.04 | 48 | 1014.6 |
| 20260906185104 | 83 | 101 | 6.0 | 9.0 | 0.00 | 0.04 | 0.04 | 49 | 1014.6 |
| 20260906184604 | 83 | 98 | 6.0 | 10.0 | 0.00 | 0.04 | 0.04 | 52 | 1014.6 |
| 20260906184103 | 83 | 107 | 6.0 | 14.0 | 0.00 | 0.04 | 0.04 | 52 | 1014.7 |
| 20260906183604 | 83 | 104 | 10.0 | 15.0 | 0.00 | 0.04 | 0.04 | 53 | 1014.6 |
| 20260906183103 | 83 | 88 | 6.0 | 9.0 | 0.00 | 0.04 | 0.04 | 50 | 1014.5 |
| 20260906182604 | 82 | 109 | 6.0 | 9.0 | 0.00 | 0.04 | 0.04 | 51 | 1014.5 |
| 20260906182104 | 81 | 86 | 7.0 | 10.0 | 0.00 | 0.04 | 0.04 | 55 | 1014.6 |
| 20260906181604 | 80 | 95 | 6.0 | 10.0 | 0.00 | 0.04 | 0.04 | 59 | 1014.6 |
| 20260906181103 | 80 | 62 | 7.0 | 10.0 | 0.00 | 0.04 | 0.04 | 60 | 1014.7 |
| 20260906180603 | 80 | 73 | 9.0 | 12.0 | 0.00 | 0.04 | 0.04 | 58 | 1014.8 |
| 20260906180104 | 79 | 90 | 7.0 | 10.0 | 0.00 | 0.04 | 0.04 | 60 | 1014.7 |
| 20260906175104 | 77 | 93 | 5.0 | 8.0 | 0.00 | 0.04 | 0.04 | 63 | 1014.6 |
| 20260906174604 | 76 | 94 | 5.0 | 6.0 | 0.00 | 0.04 | 0.04 | 64 | 1014.6 |
| 20260906174104 | 75 | 94 | 3.0 | 5.0 | 0.00 | 0.04 | 0.04 | 64 | 1014.8 |
| 20260906173604 | 75 | 94 | 2.0 | 6.0 | 0.00 | 0.04 | 0.04 | 64 | 1014.8 |
| 20260906173103 | 74 | 103 | 3.0 | 7.0 | 0.00 | 0.04 | 0.04 | 65 | 1014.7 |
| 20260906172103 | 73 | 108 | 4.0 | 8.0 | 0.00 | 0.04 | 0.04 | 66 | 1014.3 |
| 20260906171603 | 73 | 106 | 6.0 | 9.0 | 0.00 | 0.04 | 0.04 | 65 | 1014.3 |
| 20260906171104 | 73 | 129 | 6.0 | 10.0 | 0.00 | 0.04 | 0.04 | 65 | 1014.4 |
| 20260906170606 | 73 | 137 | 6.0 | 12.0 | 0.01 | 0.04 | 0.04 | 65 | 1014.0 |
| 20260906170110 | 73 | 121 | 9.0 | 12.0 | 0.01 | 0.04 | 0.04 | 64 | 1013.8 |
| 20260906165604 | 72 | 128 | 7.0 | 12.0 | 0.02 | 0.04 | 0.04 | 64 | 1013.9 |
| 20260906165105 | 72 | 133 | 8.0 | 15.0 | 0.03 | 0.04 | 0.04 | 66 | 1014.2 |
| 20260906164603 | 72 | 152 | 9.0 | 15.0 | 0.04 | 0.04 | 0.04 | 65 | 1014.1 |
| 20260906164103 | 72 | 175 | 5.0 | 10.0 | 0.04 | 0.04 | 0.04 | 65 | 1014.6 |
| 20260906163604 | 72 | 128 | 8.0 | 15.0 | 0.04 | 0.04 | 0.04 | 65 | 1014.4 |
| 20260906163104 | 72 | 158 | 7.0 | 12.0 | 0.04 | 0.04 | 0.04 | 65 | 1014.3 |
| 20260906162603 | 72 | 154 | 7.0 | 12.0 | 0.04 | 0.04 | 0.04 | 65 | 1014.6 |
| 20260906162103 | 72 | 191 | 6.0 | 10.0 | 0.04 | 0.04 | 0.04 | 65 | 1015.3 |
| 20260906161604 | 72 | 152 | 5.0 | 12.0 | 0.04 | 0.04 | 0.04 | 65 | 1014.6 |
| 20260906161103 | 72 | 190 | 9.0 | 15.0 | 0.04 | 0.04 | 0.04 | 66 | 1014.5 |
| 20260906160604 | 72 | 162 | 8.0 | 12.0 | 0.03 | 0.03 | 0.03 | 66 | 1014.6 |
| 20260906160103 | 72 | 174 | 7.0 | 12.0 | 0.03 | 0.03 | 0.03 | 66 | 1015.6 |
| 20260906155604 | 72 | 173 | 5.0 | 8.0 | 0.02 | 0.02 | 0.02 | 65 | 1016.0 |
| 20260906154603 | 72 | 251 | 8.0 | 12.0 | 0.00 | 0.00 | 0.00 | 64 | 1016.2 |
| 20260906154104 | 72 | 263 | 9.0 | 15.0 | 0.00 | 0.00 | 0.00 | 65 | 1016.0 |
| 20260906153604 | 72 | 222 | 9.0 | 18.0 | 0.00 | 0.00 | 0.00 | 67 | 1016.1 |
| 20260906153104 | 72 | 189 | 3.0 | 5.0 | 0.00 | 0.00 | 0.00 | 67 | 1015.8 |
| 20260906152604 | 72 | 151 | 2.0 | 5.0 | 0.00 | 0.00 | 0.00 | 68 | 1015.8 |
| 20260906152104 | 72 | 172 | 3.0 | 3.0 | 0.00 | 0.00 | 0.00 | 68 | 1016.1 |
| 20260906151104 | 72 | 228 | 1.0 | 3.0 | 0.00 | 0.00 | 0.00 | 67 | 1015.8 |
| 20260906150603 | 72 | 263 | 1.0 | 3.0 | 0.00 | 0.00 | 0.00 | 67 | 1016.1 |
| 20260906150104 | 72 | 265 | 3.0 | 5.0 | 0.00 | 0.00 | 0.00 | 67 | 1016.1 |
| 20260906145603 | 72 | 269 | 2.0 | 6.0 | 0.00 | 0.00 | 0.00 | 67 | 1016.3 |
| 20260906145104 | 72 | 267 | 4.0 | 7.0 | 0.00 | 0.00 | 0.00 | 68 | 1016.3 |
| 20260906144604 | 72 | 280 | 3.0 | 6.0 | 0.00 | 0.00 | 0.00 | 68 | 1016.4 |
| 20260906144105 | 72 | 301 | 3.0 | 6.0 | 0.00 | 0.00 | 0.00 | 68 | 1016.2 |
| 20260906142604 | 72 | 306 | 5.0 | 7.0 | 0.00 | 0.00 | 0.00 | 68 | 1016.1 |
| 20260906142104 | 72 | 322 | 2.0 | 5.0 | 0.00 | 0.00 | 0.00 | 68 | 1016.1 |
| 20260906141603 | 72 | 292 | 3.0 | 6.0 | 0.00 | 0.00 | 0.00 | 68 | 1016.3 |
| 20260906141104 | 72 | 302 | 4.0 | 8.0 | 0.00 | 0.00 | 0.00 | 68 | 1016.4 |
| 20260906140603 | 72 | 297 | 4.0 | 6.0 | 0.00 | 0.00 | 0.00 | 68 | 1016.5 |
| 20260906140103 | 72 | 293 | 5.0 | 8.0 | 0.00 | 0.00 | 0.00 | 68 | 1016.6 |
| 20260906135603 | 72 | 291 | 5.0 | 8.0 | 0.00 | 0.00 | 0.00 | 67 | 1016.6 |
| 20260906135103 | 72 | 287 | 5.0 | 7.0 | 0.00 | 0.00 | 0.00 | 67 | 1016.6 |
| 20260906134604 | 72 | 287 | 5.0 | 7.0 | 0.00 | 0.00 | 0.00 | 67 | 1016.6 |
| 20260906134104 | 73 | 287 | 5.0 | 7.0 | 0.00 | 0.00 | 0.00 | 67 | 1016.5 |
| 20260906133605 | 73 | 289 | 6.0 | 8.0 | 0.00 | 0.00 | 0.00 | 66 | 1016.4 |
| 20260906132103 | 73 | 301 | 2.0 | 6.0 | 0.00 | 0.00 | 0.00 | 66 | 1016.4 |
| 20260906131603 | 73 | 308 | 4.0 | 9.0 | 0.00 | 0.00 | 0.00 | 65 | 1016.4 |
| 20260906131104 | 73 | 289 | 5.0 | 9.0 | 0.00 | 0.00 | 0.00 | 65 | 1016.4 |
| 20260906130604 | 73 | 301 | 6.0 | 10.0 | 0.00 | 0.00 | 0.00 | 65 | 1016.4 |
| 20260906130103 | 73 | 308 | 6.0 | 12.0 | 0.00 | 0.00 | 0.00 | 64 | 1016.4 |
| 20260906125603 | 74 | 304 | 5.0 | 12.0 | 0.00 | 0.00 | 0.00 | 64 | 1016.3 |
| 20260906125104 | 74 | 313 | 7.0 | 12.0 | 0.00 | 0.00 | 0.00 | 64 | 1016.2 |
| 20260906124603 | 74 | 317 | 9.0 | 13.0 | 0.00 | 0.00 | 0.00 | 63 | 1016.1 |
| 20260906124104 | 74 | 314 | 9.0 | 16.0 | 0.00 | 0.00 | 0.00 | 63 | 1016.0 |
| 20260906123603 | 74 | 322 | 12.0 | 17.0 | 0.00 | 0.00 | 0.00 | 63 | 1016.1 |
| 20260906123104 | 74 | 321 | 9.0 | 14.0 | 0.00 | 0.00 | 0.00 | 63 | 1016.1 |
| 20260906122603 | 75 | 301 | 9.0 | 12.0 | 0.00 | 0.00 | 0.00 | 64 | 1016.3 |
| 20260906122104 | 75 | 313 | 7.0 | 12.0 | 0.00 | 0.00 | 0.00 | 64 | 1016.2 |
| 20260906121603 | 75 | 292 | 10.0 | 16.0 | 0.00 | 0.00 | 0.00 | 64 | 1016.2 |
| 20260906121103 | 75 | 295 | 7.0 | 15.0 | 0.00 | 0.00 | 0.00 | 64 | 1016.1 |
| 20260906120603 | 74 | 306 | 9.0 | 18.0 | 0.00 | 0.00 | 0.00 | 65 | 1016.1 |
| 20260906115104 | 74 | 286 | 5.0 | 8.0 | 0.00 | 0.00 | 0.00 | 65 | 1015.6 |
| 20260906114603 | 74 | 299 | 5.0 | 7.0 | 0.00 | 0.00 | 0.00 | 66 | 1015.5 |
| 20260906114104 | 74 | 293 | 3.0 | 5.0 | 0.00 | 0.00 | 0.00 | 66 | 1015.3 |
| 20260906113603 | 73 | 289 | 3.0 | 9.0 | 0.00 | 0.00 | 0.00 | 67 | 1015.3 |
| 20260906111604 | 72 | 119 | 0.0 | 1.0 | 0.00 | 0.00 | 0.00 | 69 | 1014.3 |
| 20260906111103 | 72 | 119 | 2.0 | 3.0 | 0.00 | 0.00 | 0.00 | 69 | 1014.1 |
| 20260906110104 | 72 | 118 | 2.0 | 3.0 | 0.00 | 0.00 | 0.00 | 69 | 1013.9 |
| 20260906105603 | 72 | 118 | 1.0 | 3.0 | 0.00 | 0.00 | 0.00 | 69 | 1013.8 |
| 20260906105103 | 72 | 118 | 2.0 | 3.0 | 0.00 | 0.00 | 0.00 | 69 | 1013.7 |
| 20260906104604 | 72 | 119 | 2.0 | 3.0 | 0.00 | 0.00 | 0.00 | 69 | 1013.7 |
| 20260906104103 | 72 | 119 | 1.0 | 3.0 | 0.00 | 0.00 | 0.00 | 69 | 1013.6 |
| 20260906103104 | 72 | 119 | 2.0 | 3.0 | 0.00 | 0.00 | 0.00 | 69 | 1013.6 |
| 20260906102604 | 72 | 119 | 2.0 | 3.0 | 0.00 | 0.00 | 0.00 | 69 | 1013.6 |
| 20260906102103 | 72 | 119 | 1.0 | 3.0 | 0.00 | 0.00 | 0.00 | 69 | 1013.6 |
| 20260906101604 | 72 | 119 | 2.0 | 3.0 | 0.00 | 0.00 | 0.00 | 69 | 1013.7 |
| 20260906101104 | 72 | 119 | 2.0 | 3.0 | 0.00 | 0.00 | 0.00 | 69 | 1013.7 |
| 20260906100604 | 72 | 119 | 0.0 | 0.0 | 0.00 | 0.00 | 0.00 | 69 | 1013.7 |
| 20260906095604 | 72 | 119 | 1.0 | 2.0 | 0.00 | 0.00 | 0.00 | 69 | 1013.7 |
| 20260906095104 | 72 | 119 | 2.0 | 3.0 | 0.00 | 0.00 | 0.00 | 69 | 1013.6 |
| 20260906094604 | 72 | 119 | 2.0 | 3.0 | 0.00 | 0.00 | 0.00 | 69 | 1013.6 |
| 20260906094104 | 72 | 119 | 2.0 | 3.0 | 0.00 | 0.00 | 0.00 | 69 | 1013.6 |
| 20260906093604 | 73 | 119 | 2.0 | 3.0 | 0.00 | 0.00 | 0.00 | 69 | 1013.6 |
| 20260906093104 | 72 | 119 | 3.0 | 5.0 | 0.00 | 0.00 | 0.00 | 70 | 1013.6 |
| 20260906092603 | 72 | 118 | 4.0 | 5.0 | 0.00 | 0.00 | 0.00 | 70 | 1013.5 |
| 20260906091604 | 73 | 117 | 3.0 | 3.0 | 0.00 | 0.00 | 0.00 | 70 | 1013.3 |
| 20260906091104 | 73 | 118 | 3.0 | 5.0 | 0.00 | 0.00 | 0.00 | 70 | 1013.4 |
| 20260906090603 | 73 | 121 | 3.0 | 5.0 | 0.00 | 0.00 | 0.00 | 70 | 1013.3 |
| 20260906090105 | 73 | 122 | 3.0 | 5.0 | 0.00 | 0.00 | 0.00 | 70 | 1013.3 |
| 20260906085604 | 73 | 122 | 3.0 | 3.0 | 0.00 | 0.00 | 0.00 | 70 | 1013.2 |
| 20260906085103 | 73 | 123 | 3.0 | 5.0 | 0.00 | 0.00 | 0.00 | 70 | 1013.3 |
| 20260906084604 | 73 | 121 | 3.0 | 3.0 | 0.00 | 0.00 | 0.00 | 70 | 1013.3 |
| 20260906084103 | 73 | 122 | 3.0 | 3.0 | 0.00 | 0.00 | 0.00 | 70 | 1013.3 |
| 20260906083603 | 73 | 121 | 3.0 | 5.0 | 0.00 | 0.00 | 0.00 | 70 | 1013.4 |
| 20260906083103 | 73 | 122 | 3.0 | 5.0 | 0.00 | 0.00 | 0.00 | 70 | 1013.3 |
| 20260906082103 | 73 | 124 | 3.0 | 3.0 | 0.00 | 0.00 | 0.00 | 70 | 1013.4 |
| 20260906081603 | 73 | 124 | 3.0 | 3.0 | 0.00 | 0.00 | 0.00 | 70 | 1013.5 |
| 20260906081104 | 73 | 125 | 2.0 | 3.0 | 0.00 | 0.00 | 0.00 | 70 | 1013.4 |
| 20260906080603 | 73 | 125 | 2.0 | 3.0 | 0.00 | 0.00 | 0.00 | 70 | 1013.4 |
| 20260906080103 | 73 | 125 | 2.0 | 3.0 | 0.00 | 0.00 | 0.00 | 70 | 1013.5 |
| 20260906075604 | 73 | 125 | 3.0 | 5.0 | 0.00 | 0.00 | 0.00 | 70 | 1013.6 |
| 20260906075104 | 73 | 123 | 3.0 | 5.0 | 0.00 | 0.00 | 0.00 | 70 | 1013.6 |
| 20260906074603 | 73 | 122 | 4.0 | 5.0 | 0.00 | 0.00 | 0.00 | 70 | 1013.6 |
| 20260906074104 | 73 | 114 | 3.0 | 3.0 | 0.00 | 0.00 | 0.00 | 70 | 1013.6 |
| 20260906073603 | 73 | 113 | 3.0 | 3.0 | 0.00 | 0.00 | 0.00 | 70 | 1013.5 |
| 20260906073104 | 74 | 113 | 2.0 | 3.0 | 0.00 | 0.00 | 0.00 | 70 | 1013.5 |
| 20260906072603 | 74 | 113 | 3.0 | 3.0 | 0.00 | 0.00 | 0.00 | 70 | 1013.5 |
| 20260906072103 | 74 | 113 | 2.0 | 3.0 | 0.00 | 0.00 | 0.00 | 69 | 1013.4 |
| 20260906071604 | 74 | 113 | 3.0 | 3.0 | 0.00 | 0.00 | 0.00 | 69 | 1013.4 |
| 20260906071104 | 74 | 113 | 2.0 | 3.0 | 0.00 | 0.00 | 0.00 | 69 | 1013.4 |
| 20260906070603 | 74 | 113 | 2.0 | 3.0 | 0.00 | 0.00 | 0.00 | 69 | 1013.4 |
| 20260906070105 | 74 | 113 | 2.0 | 3.0 | 0.00 | 0.00 | 0.00 | 69 | 1013.4 |
| 20260906065603 | 74 | 113 | 1.0 | 3.0 | 0.00 | 0.00 | 0.00 | 69 | 1013.4 |
| 20260906065103 | 74 | 113 | 2.0 | 3.0 | 0.00 | 0.00 | 0.00 | 69 | 1013.3 |
| 20260906064603 | 74 | 115 | 2.0 | 3.0 | 0.00 | 0.00 | 0.00 | 69 | 1013.3 |
| 20260906064104 | 74 | 115 | 1.0 | 3.0 | 0.00 | 0.00 | 0.00 | 69 | 1013.2 |
| 20260906063104 | 74 | 116 | 2.0 | 3.0 | 0.00 | 0.00 | 0.00 | 69 | 1013.1 |
| 20260906062604 | 75 | 117 | 2.0 | 3.0 | 0.00 | 0.00 | 0.00 | 69 | 1013.1 |
| 20260906062104 | 75 | 117 | 2.0 | 3.0 | 0.00 | 0.00 | 0.00 | 68 | 1013.2 |
| 20260906061604 | 75 | 104 | 0.0 | 0.0 | 0.00 | 0.00 | 0.00 | 68 | 1013.2 |
| 20260906061104 | 75 | 104 | 0.0 | 0.0 | 0.00 | 0.00 | 0.00 | 68 | 1013.3 |
| 20260906060603 | 75 | 104 | 0.0 | 2.0 | 0.00 | 0.00 | 0.00 | 67 | 1013.4 |
| 20260906060103 | 76 | 104 | 2.0 | 3.0 | 0.00 | 0.00 | 0.00 | 67 | 1013.4 |
| 20260906055604 | 76 | 104 | 1.0 | 3.0 | 0.00 | 0.00 | 0.00 | 67 | 1013.5 |
| 20260906055104 | 76 | 104 | 0.0 | 0.0 | 0.00 | 0.00 | 0.00 | 66 | 1013.6 |
| 20260906054604 | 76 | 104 | 1.0 | 3.0 | 0.00 | 0.00 | 0.00 | 66 | 1013.6 |
| 20260906054104 | 76 | 104 | 1.0 | 2.0 | 0.00 | 0.00 | 0.00 | 66 | 1013.5 |
| 20260906053604 | 76 | 104 | 1.0 | 3.0 | 0.00 | 0.00 | 0.00 | 66 | 1013.5 |
| 20260906053103 | 76 | 104 | 2.0 | 3.0 | 0.00 | 0.00 | 0.00 | 66 | 1013.6 |
| 20260906052103 | 76 | 104 | 2.0 | 3.0 | 0.00 | 0.00 | 0.00 | 66 | 1013.5 |
| 20260906051603 | 76 | 104 | 3.0 | 5.0 | 0.00 | 0.00 | 0.00 | 66 | 1013.5 |
| 20260906051104 | 76 | 103 | 3.0 | 5.0 | 0.00 | 0.00 | 0.00 | 66 | 1013.4 |
| 20260906050604 | 76 | 99 | 2.0 | 5.0 | 0.00 | 0.00 | 0.00 | 66 | 1013.4 |
| 20260906050104 | 77 | 99 | 5.0 | 6.0 | 0.00 | 0.00 | 0.00 | 66 | 1013.4 |
| 20260906045604 | 77 | 99 | 5.0 | 6.0 | 0.00 | 0.00 | 0.00 | 66 | 1013.4 |
| 20260906045104 | 77 | 99 | 5.0 | 6.0 | 0.00 | 0.00 | 0.00 | 65 | 1013.4 |
| 20260906044103 | 78 | 107 | 5.0 | 5.0 | 0.00 | 0.00 | 0.00 | 64 | 1013.3 |
| 20260906043603 | 78 | 107 | 5.0 | 5.0 | 0.00 | 0.00 | 0.00 | 63 | 1013.3 |
| 20260906042604 | 78 | 107 | 4.0 | 5.0 | 0.00 | 0.00 | 0.00 | 63 | 1013.3 |
| 20260906042103 | 78 | 108 | 5.0 | 7.0 | 0.00 | 0.00 | 0.00 | 62 | 1013.3 |
| 20260906040604 | 79 | 117 | 3.0 | 3.0 | 0.00 | 0.00 | 0.00 | 62 | 1013.4 |
| 20260906040104 | 79 | 124 | 2.0 | 3.0 | 0.00 | 0.00 | 0.00 | 62 | 1013.3 |
| 20260906035604 | 79 | 123 | 2.0 | 3.0 | 0.00 | 0.00 | 0.00 | 62 | 1013.2 |
| 20260906034604 | 79 | 124 | 1.0 | 2.0 | 0.00 | 0.00 | 0.00 | 62 | 1013.2 |
| 20260906034104 | 80 | 124 | 1.0 | 2.0 | 0.00 | 0.00 | 0.00 | 62 | 1013.1 |
| 20260906033103 | 80 | 124 | 2.0 | 3.0 | 0.00 | 0.00 | 0.00 | 62 | 1012.9 |
| 20260906032603 | 80 | 124 | 1.0 | 3.0 | 0.00 | 0.00 | 0.00 | 61 | 1012.9 |
| 20260906032104 | 80 | 123 | 2.0 | 3.0 | 0.00 | 0.00 | 0.00 | 61 | 1012.9 |
| 20260906031604 | 81 | 123 | 2.0 | 3.0 | 0.00 | 0.00 | 0.00 | 61 | 1012.9 |
| 20260906030104 | 81 | 124 | 2.0 | 3.0 | 0.00 | 0.00 | 0.00 | 60 | 1012.9 |
| 20260906025603 | 81 | 124 | 2.0 | 3.0 | 0.00 | 0.00 | 0.00 | 60 | 1012.9 |
| 20260906025103 | 81 | 124 | 1.0 | 3.0 | 0.00 | 0.00 | 0.00 | 60 | 1012.7 |
| 20260906024604 | 82 | 124 | 1.0 | 2.0 | 0.00 | 0.00 | 0.00 | 59 | 1012.7 |
| 20260906024104 | 82 | 124 | 0.0 | 0.0 | 0.00 | 0.00 | 0.00 | 59 | 1012.5 |
| 20260906023603 | 82 | 124 | 0.0 | 0.0 | 0.00 | 0.00 | 0.00 | 59 | 1012.5 |
| 20260906023104 | 82 | 124 | 0.0 | 1.0 | 0.00 | 0.00 | 0.00 | 58 | 1012.4 |
| 20260906022603 | 83 | 124 | 1.0 | 2.0 | 0.00 | 0.00 | 0.00 | 58 | 1012.2 |
| 20260906022103 | 83 | 124 | 2.0 | 3.0 | 0.00 | 0.00 | 0.00 | 58 | 1012.2 |
| 20260906020604 | 83 | 125 | 5.0 | 7.0 | 0.00 | 0.00 | 0.00 | 57 | 1012.1 |
| 20260906015603 | 83 | 110 | 5.0 | 7.0 | 0.00 | 0.00 | 0.00 | 57 | 1011.9 |
| 20260906015104 | 83 | 97 | 5.0 | 6.0 | 0.00 | 0.00 | 0.00 | 56 | 1011.9 |
| 20260906014604 | 84 | 96 | 5.0 | 6.0 | 0.00 | 0.00 | 0.00 | 56 | 1011.8 |
| 20260906014103 | 84 | 96 | 4.0 | 7.0 | 0.00 | 0.00 | 0.00 | 55 | 1011.7 |
| 20260906012603 | 86 | 92 | 5.0 | 7.0 | 0.00 | 0.00 | 0.00 | 51 | 1011.3 |
| 20260906012104 | 87 | 107 | 3.0 | 3.0 | 0.00 | 0.00 | 0.00 | 48 | 1011.2 |
| 20260906011603 | 87 | 107 | 3.0 | 5.0 | 0.00 | 0.00 | 0.00 | 48 | 1011.2 |
| 20260906011104 | 87 | 109 | 5.0 | 8.0 | 0.00 | 0.00 | 0.00 | 47 | 1011.1 |
| 20260906010604 | 88 | 105 | 5.0 | 7.0 | 0.00 | 0.00 | 0.00 | 46 | 1011.1 |
| 20260906005604 | 89 | 117 | 5.0 | 7.0 | 0.00 | 0.00 | 0.00 | 45 | 1011.1 |
| 20260906005103 | 90 | 115 | 5.0 | 7.0 | 0.00 | 0.00 | 0.00 | 44 | 1011.2 |
| 20260906004604 | 91 | 115 | 5.0 | 7.0 | 0.00 | 0.00 | 0.00 | 43 | 1011.3 |
| 20260906004103 | 91 | 126 | 3.0 | 6.0 | 0.00 | 0.00 | 0.00 | 42 | 1011.2 |
| 20260906003103 | 92 | 133 | 5.0 | 6.0 | 0.00 | 0.00 | 0.00 | 41 | 1011.2 |
| 20260906002603 | 92 | 127 | 4.0 | 6.0 | 0.00 | 0.00 | 0.00 | 41 | 1011.1 |
| 20260906002103 | 92 | 129 | 5.0 | 7.0 | 0.00 | 0.00 | 0.00 | 41 | 1011.0 |
| 20260906001104 | 93 | 135 | 6.0 | 9.0 | 0.00 | 0.00 | 0.00 | 40 | 1010.9 |
| 20260906000604 | 93 | 131 | 5.0 | 8.0 | 0.00 | 0.00 | 0.00 | 40 | 1010.9 |
| 20260906000104 | 93 | 138 | 6.0 | 9.0 | 0.00 | 0.00 | 0.00 | 39 | 1010.9 |
| 20260905235104 | 94 | 134 | 5.0 | 8.0 | 0.00 | 0.00 | 0.00 | 39 | 1010.9 |
| 20260905234604 | 94 | 149 | 5.0 | 8.0 | 0.00 | 0.00 | 0.00 | 39 | 1010.9 |
| 20260905234104 | 94 | 133 | 6.0 | 9.0 | 0.00 | 0.00 | 0.00 | 38 | 1010.9 |
| 20260905233603 | 94 | 134 | 5.0 | 8.0 | 0.00 | 0.00 | 0.00 | 40 | 1010.9 |
| 20260905233103 | 94 | 130 | 7.0 | 10.0 | 0.00 | 0.00 | 0.00 | 41 | 1010.8 |
| 20260905232604 | 94 | 135 | 7.0 | 12.0 | 0.00 | 0.00 | 0.00 | 41 | 1010.8 |
| 20260905231604 | 94 | 144 | 7.0 | 9.0 | 0.00 | 0.00 | 0.00 | 40 | 1010.7 |
| 20260905231104 | 94 | 145 | 7.0 | 12.0 | 0.00 | 0.00 | 0.00 | 40 | 1010.7 |
| 20260905230604 | 94 | 125 | 6.0 | 13.0 | 0.00 | 0.00 | 0.00 | 40 | 1010.8 |
| 20260905230105 | 94 | 129 | 9.0 | 13.0 | 0.00 | 0.00 | 0.00 | 40 | 1010.8 |
| 20260905225607 | 94 | 127 | 9.0 | 12.0 | 0.00 | 0.00 | 0.00 | 39 | 1010.9 |
| 20260905225103 | 94 | 132 | 10.0 | 14.0 | 0.00 | 0.00 | 0.00 | 39 | 1010.9 |
| 20260905224607 | 94 | 139 | 12.0 | 14.0 | 0.00 | 0.00 | 0.00 | 39 | 1011.0 |
| 20260905224107 | 94 | 145 | 9.0 | 12.0 | 0.00 | 0.00 | 0.00 | 39 | 1011.0 |
| 20260905223606 | 94 | 133 | 9.0 | 13.0 | 0.00 | 0.00 | 0.00 | 38 | 1010.9 |
| 20260905223104 | 94 | 133 | 12.0 | 17.0 | 0.00 | 0.00 | 0.00 | 38 | 1011.1 |
| 20260905222604 | 94 | 128 | 9.0 | 14.0 | 0.00 | 0.00 | 0.00 | 38 | 1011.2 |
| 20260905222103 | 94 | 128 | 9.0 | 15.0 | 0.00 | 0.00 | 0.00 | 39 | 1011.2 |
| 20260905221603 | 94 | 120 | 12.0 | 17.0 | 0.00 | 0.00 | 0.00 | 39 | 1011.2 |
| 20260905221104 | 94 | 116 | 13.0 | 17.0 | 0.00 | 0.00 | 0.00 | 39 | 1011.3 |
| 20260905220604 | 94 | 113 | 14.0 | 18.0 | 0.00 | 0.00 | 0.00 | 39 | 1011.4 |
| 20260905220108 | 94 | 112 | 12.0 | 22.0 | 0.00 | 0.00 | 0.00 | 40 | 1011.4 |
| 20260905203604 | 93 | 110 | 13.0 | 20.0 | 0.00 | 0.00 | 0.00 | 41 | 1012.5 |
| 20260905203103 | 93 | 132 | 12.0 | 16.0 | 0.00 | 0.00 | 0.00 | 42 | 1012.6 |
| 20260905202604 | 92 | 95 | 12.0 | 17.0 | 0.00 | 0.00 | 0.00 | 43 | 1012.7 |
| 20260905202104 | 92 | 111 | 16.0 | 22.0 | 0.00 | 0.00 | 0.00 | 43 | 1012.8 |
| 20260905201605 | 92 | 95 | 14.0 | 18.0 | 0.00 | 0.00 | 0.00 | 44 | 1012.9 |
| 20260905201104 | 92 | 107 | 14.0 | 22.0 | 0.00 | 0.00 | 0.00 | 43 | 1012.9 |
| 20260905200604 | 92 | 107 | 12.0 | 16.0 | 0.00 | 0.00 | 0.00 | 45 | 1013.0 |
| 20260905195604 | 92 | 99 | 17.0 | 22.0 | 0.00 | 0.00 | 0.00 | 46 | 1013.0 |
| 20260905195104 | 92 | 80 | 12.0 | 18.0 | 0.00 | 0.00 | 0.00 | 46 | 1013.1 |